Time;durP1;ratioP1;P1;durP2;ratioP2;P2;SDS_P1;SDS_P2;PMS_P1;PMS_P2;Temp;Humidity;BMP_temperature;BMP_pressure;BME280_temperature;BME280_humidity;BME280_pressure;Samples;Min_cycle;Max_cycle;Signal;HPM_P1;HPM_P2
2022/09/18 00:01:35;;;;;;;;;;;;;;;10.17;86.67;99511.66;8409111;28;19927;-79
2022/09/18 00:05:37;;;;;;;;;;;;;;;10.20;86.19;99514.22;8431095;28;19923;-79
2022/09/18 00:09:38;;;;;;;;;;;;;;;10.21;86.18;99505.63;8412217;28;20345;-79
2022/09/18 00:13:47;;;;;;;;;;;;;;;10.22;86.37;99503.88;8415871;28;20011;-79
2022/09/18 00:17:49;;;;;;;;;;;;;;;10.25;86.64;99506.50;8413269;28;19920;-79
2022/09/18 00:21:50;;;;;;;;;;;;;;;10.20;86.29;99508.19;8413845;28;19923;-79
2022/09/18 00:25:52;;;;;;;;;;;;;;;10.24;86.47;99504.78;8439111;28;19924;-79
2022/09/18 00:29:53;;;;;;;;;;;;;;;10.20;86.49;99495.19;8423134;28;20402;-79
2022/09/18 00:34:13;;;;;;;;;;;;;;;10.23;86.34;99503.91;8412410;28;19924;-79
2022/09/18 00:38:14;;;;;;;;;;;;;;;10.27;86.46;99507.34;8426490;28;19923;-79
2022/09/18 00:42:17;;;;;;;;;;;;;;;10.31;86.64;99500.44;8404079;28;20506;-79
2022/09/18 00:46:30;;;;;;;;;;;;;;;10.28;86.45;99501.31;8414486;28;19942;-79
2022/09/18 00:50:39;;;;;;;;;;;;;;;10.32;85.88;99495.22;8431015;28;19927;-79
2022/09/18 00:54:49;;;;;;;;;;;;;;;10.33;85.66;99491.75;8432977;28;19973;-79
2022/09/18 00:58:50;;;;;;;;;;;;;;;10.35;85.68;99489.16;8420702;28;20339;-79
2022/09/18 01:02:52;;;;;;;;;;;;;;;10.36;85.36;99498.69;8419859;28;19934;-79
2022/09/18 01:06:57;;;;;;;;;;;;;;;10.38;85.55;99494.34;8427362;28;19981;-79
2022/09/18 01:10:58;;;;;;;;;;;;;;;10.39;85.30;99502.13;8399139;28;19927;-79
2022/09/18 01:15:09;;;;;;;;;;;;;;;10.37;85.53;99503.88;8416159;28;19924;-78
2022/09/18 01:19:14;;;;;;;;;;;;;;;10.39;85.30;99496.94;8418665;28;19924;-79
2022/09/18 01:23:35;;;;;;;;;;;;;;;10.36;85.58;99493.47;8446357;28;19920;-79
2022/09/18 01:27:48;;;;;;;;;;;;;;;10.39;85.33;99501.25;8414496;28;19978;-79
2022/09/18 01:32:00;;;;;;;;;;;;;;;10.34;84.58;99497.81;8425086;28;19919;-79
2022/09/18 01:36:10;;;;;;;;;;;;;;;10.35;84.96;99499.53;8413104;28;19924;-79
2022/09/18 01:40:18;;;;;;;;;;;;;;;10.39;85.26;99496.06;8430180;28;19977;-79
2022/09/18 01:44:22;;;;;;;;;;;;;;;10.41;85.03;99494.34;8433542;28;20010;-79
2022/09/18 01:48:30;;;;;;;;;;;;;;;10.40;84.90;99497.78;8395633;28;19924;-79
2022/09/18 01:52:42;;;;;;;;;;;;;;;10.38;84.83;99490.00;8415658;28;20027;-79
2022/09/18 01:56:47;;;;;;;;;;;;;;;10.34;84.61;99492.63;8388195;28;19924;-79
2022/09/18 02:00:56;;;;;;;;;;;;;;;10.36;84.68;99483.97;8393499;28;19928;-79
2022/09/18 02:04:59;;;;;;;;;;;;;;;10.34;84.91;99479.66;8423045;28;20307;-79
2022/09/18 02:09:01;;;;;;;;;;;;;;;10.31;85.25;99470.16;8405810;28;20015;-79
2022/09/18 02:13:03;;;;;;;;;;;;;;;10.27;84.87;99466.69;8415129;28;20042;-79
2022/09/18 02:17:21;;;;;;;;;;;;;;;10.25;84.50;99465.84;8415116;28;19919;-79
2022/09/18 02:21:29;;;;;;;;;;;;;;;10.24;84.36;99478.81;8393266;28;19931;-79
2022/09/18 02:25:51;;;;;;;;;;;;;;;10.23;84.55;99480.56;8401417;28;20311;-78
2022/09/18 02:29:52;;;;;;;;;;;;;;;10.21;84.62;99469.28;8426441;28;19924;-79
2022/09/18 02:33:54;;;;;;;;;;;;;;;10.15;84.89;99471.88;8417166;28;19920;-79
2022/09/18 02:38:12;;;;;;;;;;;;;;;10.13;84.88;99468.41;8393767;28;19989;-79
2022/09/18 02:42:22;;;;;;;;;;;;;;;10.06;84.51;99469.31;8405569;28;19950;-79
2022/09/18 02:46:42;;;;;;;;;;;;;;;9.95;85.17;99465.84;8411196;28;19982;-79
2022/09/18 02:50:59;;;;;;;;;;;;;;;9.85;85.21;99466.69;8414908;28;19954;-79
2022/09/18 02:55:10;;;;;;;;;;;;;;;9.74;85.53;99471.91;8399301;28;19930;-79
2022/09/18 02:59:25;;;;;;;;;;;;;;;9.62;85.96;99469.28;8386092;28;19928;-79
2022/09/18 03:03:27;;;;;;;;;;;;;;;9.43;85.81;99470.13;8384110;28;20677;-79
2022/09/18 03:07:28;;;;;;;;;;;;;;;9.37;86.76;99476.19;8412304;28;19923;-79
2022/09/18 03:11:37;;;;;;;;;;;;;;;9.33;87.60;99477.00;8406003;28;20394;-78
2022/09/18 03:15:44;;;;;;;;;;;;;;;9.34;87.59;99468.41;8390666;28;20398;-79
2022/09/18 03:19:46;;;;;;;;;;;;;;;9.32;88.50;99463.19;8410710;28;20442;-79
2022/09/18 03:23:47;;;;;;;;;;;;;;;9.34;87.93;99453.72;8391594;28;20023;-78
2022/09/18 03:27:56;;;;;;;;;;;;;;;9.31;87.61;99460.59;8395088;28;19928;-79
2022/09/18 03:32:04;;;;;;;;;;;;;;;9.31;88.24;99466.66;8407317;28;19924;-79
2022/09/18 03:36:12;;;;;;;;;;;;;;;9.32;88.49;99468.38;8405204;28;19924;-79
2022/09/18 03:40:14;;;;;;;;;;;;;;;9.33;87.62;99464.06;8425485;28;19924;-79
2022/09/18 03:44:23;;;;;;;;;;;;;;;9.34;87.30;99468.41;8391559;28;19938;-79
2022/09/18 03:48:31;;;;;;;;;;;;;;;9.34;88.46;99465.81;8382749;28;19924;-79
2022/09/18 03:52:33;;;;;;;;;;;;;;;9.29;88.04;99458.00;8394731;28;19920;-79
2022/09/18 03:56:37;;;;;;;;;;;;;;;9.23;87.64;99460.59;8388915;28;19924;-78
2022/09/18 04:00:38;;;;;;;;;;;;;;;9.18;87.49;99467.50;8385125;28;19928;-78
2022/09/18 04:04:40;;;;;;;;;;;;;;;9.10;87.79;99466.63;8410890;28;20416;-78
2022/09/18 04:08:48;;;;;;;;;;;;;;;9.03;87.29;99470.91;8392634;28;19973;-78
2022/09/18 04:12:50;;;;;;;;;;;;;;;8.98;87.44;99467.47;8424486;28;19924;-79
2022/09/18 04:16:51;;;;;;;;;;;;;;;8.86;87.40;99470.00;8420710;28;19924;-78
2022/09/18 04:20:52;;;;;;;;;;;;;;;8.76;88.18;99473.41;8415772;28;19934;-78
2022/09/18 04:24:54;;;;;;;;;;;;;;;8.70;87.78;99469.06;8421726;28;19931;-78
2022/09/18 04:28:55;;;;;;;;;;;;;;;8.60;87.94;99472.47;8416895;28;20053;-78
2022/09/18 04:32:57;;;;;;;;;;;;;;;8.53;88.70;99475.03;8418051;28;19925;-78
2022/09/18 04:37:05;;;;;;;;;;;;;;;8.45;88.90;99467.25;8383233;28;19942;-78
2022/09/18 04:41:13;;;;;;;;;;;;;;;8.43;89.21;99468.91;8394475;28;19938;-78
2022/09/18 04:45:14;;;;;;;;;;;;;;;8.40;89.08;99466.31;8388646;28;19924;-78
2022/09/18 04:49:15;;;;;;;;;;;;;;;8.34;89.07;99467.16;8422001;28;19920;-78
2022/09/18 04:53:17;;;;;;;;;;;;;;;8.29;89.07;99457.63;8419540;28;19924;-78
2022/09/18 04:57:19;;;;;;;;;;;;;;;8.24;89.15;99459.28;8422527;28;19919;-78
2022/09/18 05:01:20;;;;;;;;;;;;;;;8.16;89.15;99457.53;8405577;28;19930;-78
2022/09/18 05:05:21;;;;;;;;;;;;;;;8.14;89.31;99461.84;8390303;28;19935;-78
2022/09/18 05:09:23;;;;;;;;;;;;;;;8.07;89.30;99462.63;8380477;28;19929;-78
2022/09/18 05:13:24;;;;;;;;;;;;;;;8.03;89.30;99460.88;8379787;28;20440;-78
2022/09/18 05:17:26;;;;;;;;;;;;;;;8.03;89.77;99470.38;8397422;28;19923;-79
2022/09/18 05:21:27;;;;;;;;;;;;;;;8.02;89.52;99471.22;8423556;28;19969;-79
2022/09/18 05:25:29;;;;;;;;;;;;;;;8.02;90.10;99471.22;8425666;28;20365;-79
2022/09/18 05:29:31;;;;;;;;;;;;;;;8.01;89.91;99482.41;8434365;27;19924;-79
2022/09/18 05:33:40;;;;;;;;;;;;;;;7.98;90.47;99485.84;8415934;28;19920;-79
2022/09/18 05:37:41;;;;;;;;;;;;;;;7.91;90.94;99486.69;8450760;28;19919;-79
2022/09/18 05:41:43;;;;;;;;;;;;;;;7.93;90.60;99484.97;8426943;27;20015;-79
2022/09/18 05:45:45;;;;;;;;;;;;;;;8.00;91.40;99485.88;8432084;27;20283;-79
2022/09/18 05:49:46;;;;;;;;;;;;;;;7.97;90.73;99493.59;8429624;28;19984;-79
2022/09/18 05:53:48;;;;;;;;;;;;;;;8.12;91.16;99493.72;8444906;28;19923;-79
2022/09/18 05:57:53;;;;;;;;;;;;;;;8.26;91.29;99496.38;8428674;28;19924;-79
2022/09/18 06:01:54;;;;;;;;;;;;;;;8.33;90.76;99490.41;8444887;28;19980;-79
2022/09/18 06:06:02;;;;;;;;;;;;;;;8.53;91.46;99482.78;8420410;28;19927;-79
2022/09/18 06:10:03;;;;;;;;;;;;;;;8.63;90.61;99489.75;8444653;28;20413;-79
2022/09/18 06:14:12;;;;;;;;;;;;;;;8.79;90.34;99484.63;8425274;27;20010;-80
2022/09/18 06:18:14;;;;;;;;;;;;;;;9.14;90.11;99486.47;8435644;28;20279;-79
2022/09/18 06:22:15;;;;;;;;;;;;;;;9.51;88.95;99489.16;8420984;28;19977;-79
2022/09/18 06:26:16;;;;;;;;;;;;;;;9.81;88.05;99496.97;8425414;28;19927;-80
2022/09/18 06:30:18;;;;;;;;;;;;;;;9.97;86.26;99500.41;8437660;27;20234;-78
2022/09/18 06:34:19;;;;;;;;;;;;;;;10.20;84.82;99515.97;8437299;28;20282;-78
2022/09/18 06:38:20;;;;;;;;;;;;;;;10.55;83.06;99502.97;8426559;28;19919;-77
2022/09/18 06:42:22;;;;;;;;;;;;;;;10.82;81.19;99505.47;8425008;27;20295;-78
2022/09/18 06:46:23;;;;;;;;;;;;;;;11.03;79.89;99499.34;8423790;28;19928;-78
2022/09/18 06:50:25;;;;;;;;;;;;;;;10.93;79.16;99505.44;8448483;27;19923;-78
2022/09/18 06:54:26;;;;;;;;;;;;;;;11.27;78.38;99513.94;8427478;28;19934;-78
2022/09/18 06:58:35;;;;;;;;;;;;;;;11.78;77.18;99511.88;8426408;28;20338;-78
2022/09/18 07:02:36;;;;;;;;;;;;;;;12.31;74.65;99508.84;8426631;28;19920;-79
2022/09/18 07:06:38;;;;;;;;;;;;;;;12.68;71.65;99511.09;8407362;28;19931;-78
2022/09/18 07:10:46;;;;;;;;;;;;;;;12.70;68.01;99519.75;8429029;28;19920;-77
2022/09/18 07:14:54;;;;;;;;;;;;;;;12.46;68.67;99515.66;8443300;27;19988;-78
2022/09/18 07:18:55;;;;;;;;;;;;;;;12.32;70.06;99521.00;8427659;28;20350;-77
2022/09/18 07:22:58;;;;;;;;;;;;;;;12.13;69.84;99516.84;8445026;28;20417;-78
2022/09/18 07:26:59;;;;;;;;;;;;;;;12.09;70.04;99522.94;8430883;28;19953;-78
2022/09/18 07:31:01;;;;;;;;;;;;;;;12.45;69.49;99518.28;8441781;28;19933;-78
2022/09/18 07:35:03;;;;;;;;;;;;;;;12.98;68.32;99520.31;8432035;28;19923;-78
2022/09/18 07:39:04;;;;;;;;;;;;;;;13.48;66.57;99517.06;8443954;28;20612;-78
2022/09/18 07:43:07;;;;;;;;;;;;;;;13.87;64.77;99518.22;8402055;28;19969;-77
2022/09/18 07:47:10;;;;;;;;;;;;;;;14.28;63.18;99507.97;8425920;28;19976;-77
2022/09/18 07:51:11;;;;;;;;;;;;;;;14.54;61.25;99511.00;8422893;28;19924;-78
2022/09/18 07:55:13;;;;;;;;;;;;;;;14.73;60.70;99515.00;8447654;28;20290;-77
2022/09/18 07:59:14;;;;;;;;;;;;;;;14.70;59.08;99517.66;8446697;28;20028;-78
2022/09/18 08:03:24;;;;;;;;;;;;;;;14.87;59.65;99522.56;8441044;28;19927;-78
2022/09/18 08:07:25;;;;;;;;;;;;;;;15.12;57.76;99512.47;8443554;28;20260;-78
2022/09/18 08:11:26;;;;;;;;;;;;;;;15.49;57.45;99516.91;8434071;28;20279;-77
2022/09/18 08:15:36;;;;;;;;;;;;;;;15.85;56.45;99518.72;8413055;28;19935;-78
2022/09/18 08:19:37;;;;;;;;;;;;;;;16.13;55.91;99518.03;8440169;28;19923;-78
2022/09/18 08:23:39;;;;;;;;;;;;;;;15.53;54.84;99524.66;8409100;28;19931;-77
2022/09/18 08:27:41;;;;;;;;;;;;;;;14.85;57.22;99513.88;8428948;28;20322;-77
2022/09/18 08:31:42;;;;;;;;;;;;;;;14.71;58.49;99511.53;8429836;28;19929;-77
2022/09/18 08:35:44;;;;;;;;;;;;;;;14.86;58.03;99510.38;8447234;28;20312;-77
2022/09/18 08:39:45;;;;;;;;;;;;;;;15.21;56.98;99514.03;8437902;28;20500;-77
2022/09/18 08:44:06;;;;;;;;;;;;;;;15.68;57.29;99513.03;8427963;28;19985;-77
2022/09/18 08:48:24;;;;;;;;;;;;;;;15.63;57.22;99510.53;8426857;28;20402;-78
2022/09/18 08:52:27;;;;;;;;;;;;;;;15.58;56.54;99511.47;8434353;28;20021;-77
2022/09/18 08:56:28;;;;;;;;;;;;;;;15.45;56.24;99512.66;8436456;28;20346;-77
2022/09/18 09:00:40;;;;;;;;;;;;;;;15.34;56.65;99521.59;8441549;28;19930;-78
2022/09/18 09:04:42;;;;;;;;;;;;;;;15.21;56.98;99519.25;8448318;28;19966;-77
2022/09/18 09:09:02;;;;;;;;;;;;;;;15.12;57.42;99509.88;8419391;28;19977;-77
2022/09/18 09:13:17;;;;;;;;;;;;;;;15.31;58.46;99516.44;8452512;28;19980;-78
2022/09/18 09:17:36;;;;;;;;;;;;;;;15.39;57.67;99514.50;8420538;28;19924;-77
2022/09/18 09:21:37;;;;;;;;;;;;;;;15.39;56.79;99513.63;8434484;28;19934;-78
2022/09/18 09:25:46;;;;;;;;;;;;;;;15.36;56.93;99503.25;8423418;28;19928;-78
2022/09/18 09:29:51;;;;;;;;;;;;;;;15.43;55.81;99512.66;8419098;28;19923;-77
2022/09/18 09:34:05;;;;;;;;;;;;;;;15.64;57.12;99503.53;8399865;28;19999;-77
2022/09/18 09:38:27;;;;;;;;;;;;;;;15.90;56.94;99509.00;8412776;28;19924;-78
2022/09/18 09:42:40;;;;;;;;;;;;;;;15.94;54.40;99508.00;8398340;28;19924;-77
2022/09/18 09:46:57;;;;;;;;;;;;;;;16.10;54.54;99507.63;8392335;28;20295;-77
2022/09/18 09:51:25;;;;;;;;;;;;;;;16.16;54.79;99505.75;8397571;28;20315;-78
2022/09/18 09:55:52;;;;;;;;;;;;;;;16.27;54.79;99518.56;8407960;28;19985;-77
2022/09/18 09:59:53;;;;;;;;;;;;;;;16.28;53.89;99508.03;8404452;28;19982;-78
2022/09/18 10:04:13;;;;;;;;;;;;;;;16.11;53.23;99504.13;8389792;28;20660;-77
2022/09/18 10:08:26;;;;;;;;;;;;;;;16.21;54.48;99498.63;8405485;28;19934;-78
2022/09/18 10:12:46;;;;;;;;;;;;;;;15.94;53.64;99487.06;8376918;28;19924;-77
2022/09/18 10:16:49;;;;;;;;;;;;;;;16.18;55.45;99483.00;8409775;28;19931;-77
2022/09/18 10:20:55;;;;;;;;;;;;;;;16.37;53.17;99487.75;8395500;28;19931;-78
2022/09/18 10:24:59;;;;;;;;;;;;;;;16.47;53.04;99482.19;8404058;28;19930;-77
2022/09/18 10:29:01;;;;;;;;;;;;;;;16.61;52.36;99497.56;8411422;28;19923;-77
2022/09/18 10:33:02;;;;;;;;;;;;;;;16.52;51.60;99484.72;8407335;28;20242;-78
2022/09/18 10:37:04;;;;;;;;;;;;;;;16.39;51.75;99488.56;8411901;28;19931;-77
2022/09/18 10:41:10;;;;;;;;;;;;;;;16.18;52.61;99482.13;8395188;28;19919;-77
2022/09/18 10:45:23;;;;;;;;;;;;;;;15.84;52.50;99477.72;8403645;28;19930;-77
2022/09/18 10:49:27;;;;;;;;;;;;;;;15.81;53.89;99467.34;8408559;28;19959;-77
2022/09/18 10:53:33;;;;;;;;;;;;;;;15.77;54.15;99470.03;8411351;28;19920;-77
2022/09/18 10:57:36;;;;;;;;;;;;;;;15.67;53.73;99478.13;8394377;28;19928;-77
2022/09/18 11:01:44;;;;;;;;;;;;;;;15.80;55.07;99469.97;8408805;28;19924;-77
2022/09/18 11:05:47;;;;;;;;;;;;;;;15.76;54.29;99465.69;8375557;28;19927;-77
2022/09/18 11:09:49;;;;;;;;;;;;;;;15.69;53.41;99460.63;8408203;28;19925;-77
2022/09/18 11:13:58;;;;;;;;;;;;;;;15.85;53.59;99465.50;8385233;28;19924;-77
2022/09/18 11:18:01;;;;;;;;;;;;;;;15.89;52.36;99457.50;8379099;28;20491;-77
2022/09/18 11:22:04;;;;;;;;;;;;;;;15.98;52.82;99461.69;8416498;28;19924;-78
2022/09/18 11:26:11;;;;;;;;;;;;;;;15.96;51.65;99452.97;8398963;28;19981;-77
2022/09/18 11:30:22;;;;;;;;;;;;;;;15.78;51.39;99446.44;8396980;28;19928;-77
2022/09/18 11:34:24;;;;;;;;;;;;;;;15.71;50.74;99450.97;8403222;28;19966;-77
2022/09/18 11:38:37;;;;;;;;;;;;;;;15.74;49.90;99439.56;8403853;28;19932;-77
2022/09/18 11:42:43;;;;;;;;;;;;;;;15.80;49.71;99441.16;8400052;28;19932;-77
2022/09/18 11:46:57;;;;;;;;;;;;;;;16.06;50.68;99443.13;8398258;28;19993;-77
2022/09/18 11:51:01;;;;;;;;;;;;;;;16.29;50.59;99432.91;8392974;28;19997;-77
2022/09/18 11:55:08;;;;;;;;;;;;;;;16.61;50.65;99427.63;8419518;28;19924;-77
2022/09/18 11:59:36;;;;;;;;;;;;;;;16.85;50.47;99435.72;8409811;28;19924;-77
2022/09/18 12:03:54;;;;;;;;;;;;;;;16.79;48.91;99421.03;8399448;28;19924;-77
2022/09/18 12:07:58;;;;;;;;;;;;;;;16.58;48.57;99419.00;8404551;28;20608;-77
2022/09/18 12:12:03;;;;;;;;;;;;;;;16.49;48.61;99409.63;8422084;28;19953;-77
2022/09/18 12:16:14;;;;;;;;;;;;;;;16.58;48.09;99388.41;8420550;28;19931;-77
2022/09/18 12:20:22;;;;;;;;;;;;;;;17.18;47.02;99405.00;8430122;28;20165;-77
2022/09/18 12:24:24;;;;;;;;;;;;;;;17.35;46.00;99401.84;8450480;28;20640;-77
2022/09/18 12:28:34;;;;;;;;;;;;;;;17.41;46.14;99401.66;8431464;28;19931;-77
2022/09/18 12:32:42;;;;;;;;;;;;;;;17.50;45.22;99407.47;8424093;28;19931;-77
2022/09/18 12:36:43;;;;;;;;;;;;;;;17.24;44.70;99404.84;8411508;28;20322;-77
2022/09/18 12:40:58;;;;;;;;;;;;;;;16.83;45.05;99401.69;8391178;28;20184;-77
2022/09/18 12:45:14;;;;;;;;;;;;;;;16.59;44.94;99377.03;8415589;28;19930;-77
2022/09/18 12:49:18;;;;;;;;;;;;;;;16.47;45.20;99379.13;8404471;28;19936;-77
2022/09/18 12:53:20;;;;;;;;;;;;;;;16.61;44.76;99374.34;8420510;28;19924;-77
2022/09/18 12:57:29;;;;;;;;;;;;;;;16.61;44.72;99369.97;8392476;28;20027;-77
2022/09/18 13:01:34;;;;;;;;;;;;;;;16.89;45.03;99363.94;8410853;28;20350;-77
2022/09/18 13:05:54;;;;;;;;;;;;;;;17.15;44.75;99357.88;8429283;28;19927;-77
2022/09/18 13:10:02;;;;;;;;;;;;;;;17.39;43.19;99346.56;8443306;28;19932;-77
2022/09/18 13:14:18;;;;;;;;;;;;;;;17.43;43.85;99345.59;8422973;28;19936;-76
2022/09/18 13:18:33;;;;;;;;;;;;;;;17.28;43.07;99334.72;8427779;28;20382;-76
2022/09/18 13:22:43;;;;;;;;;;;;;;;17.35;44.74;99334.47;8383210;28;19989;-77
2022/09/18 13:26:46;;;;;;;;;;;;;;;17.40;44.32;99331.69;8373528;28;20287;-79
2022/09/18 13:31:08;;;;;;;;;;;;;;;17.41;44.03;99325.53;8372968;28;19947;-78
2022/09/18 13:35:12;;;;;;;;;;;;;;;17.43;43.64;99316.72;8317794;28;20269;-78
2022/09/18 13:39:28;;;;;;;;;;;;;;;17.44;43.83;99307.94;8314534;28;19984;-78
2022/09/18 13:43:51;;;;;;;;;;;;;;;17.48;43.28;99300.81;8318059;28;19964;-78
2022/09/18 13:47:55;;;;;;;;;;;;;;;17.36;43.01;99291.56;8313970;28;19982;-78
2022/09/18 13:52:15;;;;;;;;;;;;;;;17.14;42.28;99285.31;8319809;28;20012;-79
2022/09/18 13:56:16;;;;;;;;;;;;;;;16.97;44.28;99301.59;8313268;28;19925;-78
2022/09/18 14:00:18;;;;;;;;;;;;;;;16.90;44.65;99298.31;8310959;28;20724;-78
2022/09/18 14:04:38;;;;;;;;;;;;;;;17.06;44.69;99295.22;8346108;28;19999;-79
2022/09/18 14:08:39;;;;;;;;;;;;;;;17.17;44.36;99288.69;8349993;28;19958;-78
2022/09/18 14:12:40;;;;;;;;;;;;;;;17.21;42.88;99286.81;8350941;28;19968;-79
2022/09/18 14:16:43;;;;;;;;;;;;;;;17.26;43.75;99268.31;8346601;28;19925;-78
2022/09/18 14:20:50;;;;;;;;;;;;;;;17.30;44.04;99273.41;8349577;28;19925;-78
2022/09/18 14:24:51;;;;;;;;;;;;;;;17.28;43.65;99272.59;8347986;28;19935;-78
2022/09/18 14:29:17;;;;;;;;;;;;;;;17.15;44.28;99260.78;8336420;28;19928;-78
2022/09/18 14:33:19;;;;;;;;;;;;;;;17.21;45.20;99247.47;8347951;28;20713;-78
2022/09/18 14:37:28;;;;;;;;;;;;;;;17.40;44.74;99263.44;8415726;28;20336;-79
2022/09/18 14:41:37;;;;;;;;;;;;;;;17.09;43.66;99254.00;8398431;28;20022;-78
2022/09/18 14:45:39;;;;;;;;;;;;;;;16.91;45.79;99250.19;8403602;28;20393;-78
2022/09/18 14:49:41;;;;;;;;;;;;;;;16.79;45.85;99232.22;8399039;28;19923;-78
2022/09/18 14:53:45;;;;;;;;;;;;;;;16.92;46.52;99228.31;8416602;28;19939;-78
2022/09/18 14:57:56;;;;;;;;;;;;;;;17.20;45.32;99228.22;8400231;28;20658;-78
2022/09/18 15:02:16;;;;;;;;;;;;;;;17.24;43.90;99218.50;8397114;28;20031;-77
2022/09/18 15:06:33;;;;;;;;;;;;;;;17.07;44.52;99221.72;8398764;28;20730;-78
2022/09/18 15:10:37;;;;;;;;;;;;;;;17.01;44.60;99227.13;8396031;28;20375;-78
2022/09/18 15:14:39;;;;;;;;;;;;;;;17.16;44.91;99228.41;8418976;28;20324;-78
2022/09/18 15:18:48;;;;;;;;;;;;;;;17.22;44.67;99225.56;8394842;28;19931;-78
2022/09/18 15:22:52;;;;;;;;;;;;;;;17.52;44.49;99202.63;8392040;28;20416;-78
2022/09/18 15:26:55;;;;;;;;;;;;;;;17.64;43.15;99227.63;8419197;28;20293;-78
2022/09/18 15:30:59;;;;;;;;;;;;;;;17.53;43.54;99217.47;8397738;28;19923;-79
2022/09/18 15:35:01;;;;;;;;;;;;;;;17.46;43.96;99237.00;8380509;28;20283;-79
2022/09/18 15:39:04;;;;;;;;;;;;;;;17.11;43.61;99210.19;8413369;28;19923;-79
2022/09/18 15:43:25;;;;;;;;;;;;;;;16.84;44.85;99235.56;8426977;28;19932;-80
2022/09/18 15:47:27;;;;;;;;;;;;;;;16.70;44.87;99224.69;8403973;28;20307;-79
2022/09/18 15:51:29;;;;;;;;;;;;;;;17.01;45.75;99234.16;8421650;28;19924;-79
2022/09/18 15:55:50;;;;;;;;;;;;;;;17.02;44.81;99228.84;8404146;28;20329;-80
2022/09/18 15:59:56;;;;;;;;;;;;;;;17.15;45.00;99224.06;8419071;28;19927;-80
2022/09/18 16:04:00;;;;;;;;;;;;;;;17.20;43.62;99220.34;8422206;28;20676;-79
2022/09/18 16:08:15;;;;;;;;;;;;;;;17.04;43.26;99229.66;8423167;28;19928;-80
2022/09/18 16:12:33;;;;;;;;;;;;;;;16.99;44.25;99222.84;8395065;28;19981;-79
2022/09/18 16:16:35;;;;;;;;;;;;;;;16.64;44.50;99230.06;8411796;28;19989;-80
2022/09/18 16:20:41;;;;;;;;;;;;;;;16.33;44.94;99233.63;8425173;28;19962;-79
2022/09/18 16:24:42;;;;;;;;;;;;;;;16.06;46.03;99230.97;8405840;28;19923;-78
2022/09/18 16:28:49;;;;;;;;;;;;;;;16.45;46.04;99234.16;8420682;28;20369;-79
2022/09/18 16:32:57;;;;;;;;;;;;;;;16.65;45.34;99242.25;8417605;28;20328;-79
2022/09/18 16:36:59;;;;;;;;;;;;;;;16.29;46.31;99233.75;8391921;28;19920;-79
2022/09/18 16:41:00;;;;;;;;;;;;;;;16.06;46.47;99231.84;8415218;28;19980;-79
2022/09/18 16:45:09;;;;;;;;;;;;;;;15.82;46.87;99233.41;8414793;28;20014;-78
2022/09/18 16:49:11;;;;;;;;;;;;;;;15.70;47.43;99229.38;8404477;28;19989;-78
2022/09/18 16:53:13;;;;;;;;;;;;;;;15.55;47.77;99228.88;8406178;28;19927;-79
2022/09/18 16:57:17;;;;;;;;;;;;;;;15.39;47.73;99231.06;8403788;28;19920;-79
2022/09/18 17:01:21;;;;;;;;;;;;;;;15.28;47.95;99233.09;8407444;28;19920;-78
2022/09/18 17:05:48;;;;;;;;;;;;;;;15.16;47.95;99230.81;8408703;28;20681;-79
2022/09/18 17:09:50;;;;;;;;;;;;;;;15.06;48.82;99231.00;8421258;28;19977;-79
2022/09/18 17:14:05;;;;;;;;;;;;;;;14.96;49.29;99236.53;8403618;28;19920;-79
2022/09/18 17:18:13;;;;;;;;;;;;;;;14.87;50.31;99234.97;8416436;28;19925;-78
2022/09/18 17:22:14;;;;;;;;;;;;;;;14.79;49.46;99227.34;8422177;28;19920;-78
2022/09/18 17:26:21;;;;;;;;;;;;;;;14.70;49.43;99224.94;8398416;28;19928;-78
2022/09/18 17:30:24;;;;;;;;;;;;;;;14.65;49.95;99226.81;8419381;28;19928;-79
2022/09/18 17:34:25;;;;;;;;;;;;;;;14.60;49.56;99233.91;8402475;28;19925;-79
2022/09/18 17:38:26;;;;;;;;;;;;;;;14.57;50.47;99233.97;8421926;28;19920;-79
2022/09/18 17:42:28;;;;;;;;;;;;;;;14.48;50.13;99235.03;8420573;28;19928;-79
2022/09/18 17:46:29;;;;;;;;;;;;;;;14.43;50.50;99234.28;8412924;28;19923;-78
2022/09/18 17:50:32;;;;;;;;;;;;;;;14.36;50.12;99234.41;8421492;28;19923;-78
2022/09/18 17:54:34;;;;;;;;;;;;;;;14.32;50.32;99230.16;8402724;28;19978;-78
2022/09/18 17:58:39;;;;;;;;;;;;;;;14.24;50.17;99227.72;8386437;28;20313;-78
2022/09/18 18:02:41;;;;;;;;;;;;;;;14.22;50.52;99239.94;8419024;28;19924;-78
2022/09/18 18:06:45;;;;;;;;;;;;;;;14.24;50.66;99258.19;8404442;28;19928;-78
2022/09/18 18:10:46;;;;;;;;;;;;;;;14.21;51.11;99254.75;8419468;28;19924;-78
2022/09/18 18:14:47;;;;;;;;;;;;;;;14.15;50.61;99233.13;8406720;28;19928;-77
2022/09/18 18:18:50;;;;;;;;;;;;;;;14.10;50.98;99238.44;8416145;28;19981;-78
2022/09/18 18:22:51;;;;;;;;;;;;;;;14.06;51.44;99252.47;8421144;28;19923;-78
2022/09/18 18:26:59;;;;;;;;;;;;;;;14.07;52.01;99264.63;8421488;28;20478;-77
2022/09/18 18:31:04;;;;;;;;;;;;;;;14.03;52.16;99254.28;8399642;28;20352;-78
2022/09/18 18:35:06;;;;;;;;;;;;;;;13.95;52.03;99262.25;8412967;28;19936;-78
2022/09/18 18:39:14;;;;;;;;;;;;;;;13.91;52.83;99263.22;8398950;28;19973;-77
2022/09/18 18:43:16;;;;;;;;;;;;;;;13.89;53.17;99267.63;8382590;28;19924;-78
2022/09/18 18:47:19;;;;;;;;;;;;;;;13.85;53.78;99269.44;8395803;28;20613;-77
2022/09/18 18:51:20;;;;;;;;;;;;;;;13.83;53.83;99278.19;8413893;28;19931;-78
2022/09/18 18:55:22;;;;;;;;;;;;;;;13.81;53.42;99277.31;8407759;28;20682;-77
2022/09/18 18:59:24;;;;;;;;;;;;;;;13.81;53.70;99277.31;8383779;28;19989;-78
2022/09/18 19:03:25;;;;;;;;;;;;;;;13.79;53.55;99277.34;8400318;28;19930;-78
2022/09/18 19:07:30;;;;;;;;;;;;;;;13.81;53.93;99282.53;8411435;28;19923;-78
2022/09/18 19:11:32;;;;;;;;;;;;;;;13.79;54.93;99290.41;8398667;28;19919;-78
2022/09/18 19:15:40;;;;;;;;;;;;;;;13.78;55.09;99293.03;8403053;28;20348;-78
2022/09/18 19:19:41;;;;;;;;;;;;;;;13.75;55.08;99285.28;8385125;28;19924;-78
2022/09/18 19:23:46;;;;;;;;;;;;;;;13.71;55.88;99292.31;8417815;28;20400;-78
2022/09/18 19:27:48;;;;;;;;;;;;;;;13.73;56.63;99287.06;8389319;28;19928;-78
2022/09/18 19:31:49;;;;;;;;;;;;;;;13.72;55.99;99296.66;8412114;28;19924;-78
2022/09/18 19:35:51;;;;;;;;;;;;;;;13.67;56.24;99302.84;8400625;28;19932;-78
2022/09/18 19:39:52;;;;;;;;;;;;;;;13.65;56.91;99307.22;8400208;28;19924;-78
2022/09/18 19:43:53;;;;;;;;;;;;;;;13.65;57.45;99302.00;8399367;28;19931;-78
2022/09/18 19:47:55;;;;;;;;;;;;;;;13.60;57.17;99300.31;8397499;28;19997;-78
2022/09/18 19:51:57;;;;;;;;;;;;;;;13.57;57.66;99300.38;8417342;28;19920;-78
2022/09/18 19:55:59;;;;;;;;;;;;;;;13.58;57.02;99299.50;8417508;28;20242;-78
2022/09/18 20:00:00;;;;;;;;;;;;;;;13.57;57.90;99291.69;8402021;28;20539;-79
2022/09/18 20:04:02;;;;;;;;;;;;;;;13.58;58.08;99296.03;8402018;28;20056;-78
2022/09/18 20:08:05;;;;;;;;;;;;;;;13.56;57.92;99300.41;8416577;28;19931;-78
2022/09/18 20:12:13;;;;;;;;;;;;;;;13.51;57.07;99300.50;8395186;28;19931;-78
2022/09/18 20:16:16;;;;;;;;;;;;;;;13.48;57.94;99304.94;8414965;28;19993;-78
2022/09/18 20:20:17;;;;;;;;;;;;;;;13.48;58.08;99299.72;8397731;28;20011;-78
2022/09/18 20:24:19;;;;;;;;;;;;;;;13.50;57.96;99306.63;8424812;28;20352;-79
2022/09/18 20:28:21;;;;;;;;;;;;;;;13.51;57.94;99312.69;8407274;28;19924;-78
2022/09/18 20:32:23;;;;;;;;;;;;;;;13.53;58.03;99308.31;8400551;28;19938;-78
2022/09/18 20:36:25;;;;;;;;;;;;;;;13.51;57.76;99310.09;8389662;28;19956;-78
2022/09/18 20:40:26;;;;;;;;;;;;;;;13.49;58.40;99307.50;8380055;28;19928;-78
2022/09/18 20:44:29;;;;;;;;;;;;;;;13.47;58.30;99321.47;8391110;28;19924;-77
2022/09/18 20:48:34;;;;;;;;;;;;;;;13.47;58.30;99311.03;8366021;28;19925;-77
2022/09/18 20:52:36;;;;;;;;;;;;;;;13.45;58.75;99318.00;8354908;28;19928;-77
2022/09/18 20:56:43;;;;;;;;;;;;;;;13.46;59.41;99314.50;8357494;28;19979;-77
2022/09/18 21:00:47;;;;;;;;;;;;;;;13.42;59.34;99315.44;8349629;28;20364;-77
2022/09/18 21:04:51;;;;;;;;;;;;;;;13.43;58.91;99317.16;8352331;28;19925;-77
2022/09/18 21:08:53;;;;;;;;;;;;;;;13.39;58.70;99321.56;8352698;28;19925;-77
2022/09/18 21:12:56;;;;;;;;;;;;;;;13.39;58.66;99325.94;8351506;28;19932;-77
2022/09/18 21:16:58;;;;;;;;;;;;;;;13.35;59.52;99330.34;8349153;28;19929;-77
2022/09/18 21:21:08;;;;;;;;;;;;;;;13.33;59.48;99336.47;8349952;28;19925;-77